sensor_id;sensor_type;location;lat;lon;timestamp;pressure;altitude;pressure_sealevel;temperature;humidity
63306;BME280;50735;52.060;1.248;2023-03-01T00:02:13;103019.32;;;4.86;54.23
63306;BME280;50735;52.060;1.248;2023-03-01T00:04:39;103022.08;;;4.88;54.14
63306;BME280;50735;52.060;1.248;2023-03-01T00:07:06;103023.14;;;4.87;54.26
63306;BME280;50735;52.060;1.248;2023-03-01T00:09:33;103023.01;;;4.86;54.30
63306;BME280;50735;52.060;1.248;2023-03-01T00:12:00;103026.37;;;5.07;54.33
63306;BME280;50735;52.060;1.248;2023-03-01T00:14:26;103028.83;;;4.90;54.35
63306;BME280;50735;52.060;1.248;2023-03-01T00:16:53;103026.49;;;4.90;54.38
63306;BME280;50735;52.060;1.248;2023-03-01T00:19:20;103025.98;;;4.70;54.37
63306;BME280;50735;52.060;1.248;2023-03-01T00:21:47;103027.70;;;4.91;54.43
63306;BME280;50735;52.060;1.248;2023-03-01T00:24:14;103030.90;;;4.93;54.48
63306;BME280;50735;52.060;1.248;2023-03-01T00:26:41;103026.71;;;4.96;54.36
63306;BME280;50735;52.060;1.248;2023-03-01T00:29:08;103024.42;;;5.36;54.45
63306;BME280;50735;52.060;1.248;2023-03-01T00:31:35;103024.86;;;4.97;54.57
63306;BME280;50735;52.060;1.248;2023-03-01T00:34:04;103025.64;;;5.03;54.48
63306;BME280;50735;52.060;1.248;2023-03-01T00:36:32;103025.78;;;4.82;54.46
63306;BME280;50735;52.060;1.248;2023-03-01T00:39:01;103027.55;;;5.25;54.35
63306;BME280;50735;52.060;1.248;2023-03-01T00:41:29;103030.41;;;5.07;54.54
63306;BME280;50735;52.060;1.248;2023-03-01T00:43:56;103029.40;;;5.03;54.54
63306;BME280;50735;52.060;1.248;2023-03-01T00:46:25;103028.56;;;5.04;54.51
63306;BME280;50735;52.060;1.248;2023-03-01T00:48:53;103028.77;;;5.02;54.54
63306;BME280;50735;52.060;1.248;2023-03-01T00:51:22;103031.49;;;4.87;55.12
63306;BME280;50735;52.060;1.248;2023-03-01T00:53:51;103034.19;;;5.00;55.10
63306;BME280;50735;52.060;1.248;2023-03-01T00:56:18;103032.44;;;4.82;55.27
63306;BME280;50735;52.060;1.248;2023-03-01T00:58:44;103032.15;;;4.64;55.16
63306;BME280;50735;52.060;1.248;2023-03-01T01:01:13;103028.92;;;4.71;55.22
63306;BME280;50735;52.060;1.248;2023-03-01T01:03:41;103024.15;;;4.96;55.06
63306;BME280;50735;52.060;1.248;2023-03-01T01:06:13;103022.13;;;4.90;54.94
63306;BME280;50735;52.060;1.248;2023-03-01T01:08:40;103020.45;;;5.08;54.97
63306;BME280;50735;52.060;1.248;2023-03-01T01:11:08;103021.35;;;4.76;54.90
63306;BME280;50735;52.060;1.248;2023-03-01T01:13:36;103018.26;;;4.93;54.97
63306;BME280;50735;52.060;1.248;2023-03-01T01:16:04;103016.13;;;4.68;55.66
63306;BME280;50735;52.060;1.248;2023-03-01T01:18:31;103017.07;;;4.72;55.45
63306;BME280;50735;52.060;1.248;2023-03-01T01:20:57;103014.66;;;4.81;55.27
63306;BME280;50735;52.060;1.248;2023-03-01T01:23:24;103013.57;;;4.87;55.01
63306;BME280;50735;52.060;1.248;2023-03-01T01:25:51;103012.31;;;4.92;54.87
63306;BME280;50735;52.060;1.248;2023-03-01T01:28:17;103009.29;;;4.96;54.86
63306;BME280;50735;52.060;1.248;2023-03-01T01:30:44;103006.84;;;4.99;54.74
63306;BME280;50735;52.060;1.248;2023-03-01T01:33:11;103001.55;;;4.79;54.72
63306;BME280;50735;52.060;1.248;2023-03-01T01:35:37;103000.82;;;5.03;54.71
63306;BME280;50735;52.060;1.248;2023-03-01T01:38:04;102998.95;;;4.88;55.08
63306;BME280;50735;52.060;1.248;2023-03-01T01:40:31;102998.14;;;4.86;55.16
63306;BME280;50735;52.060;1.248;2023-03-01T01:42:58;102989.93;;;4.90;55.00
63306;BME280;50735;52.060;1.248;2023-03-01T01:45:30;102983.65;;;5.08;54.78
63306;BME280;50735;52.060;1.248;2023-03-01T01:48:00;102979.24;;;4.91;54.78
63306;BME280;50735;52.060;1.248;2023-03-01T01:50:29;102986.16;;;4.73;55.72
63306;BME280;50735;52.060;1.248;2023-03-01T01:52:57;102981.73;;;4.52;56.34
63306;BME280;50735;52.060;1.248;2023-03-01T01:55:25;102980.20;;;4.54;55.83
63306;BME280;50735;52.060;1.248;2023-03-01T01:57:56;102977.57;;;4.64;56.16
63306;BME280;50735;52.060;1.248;2023-03-01T02:00:27;102971.38;;;4.71;55.97
63306;BME280;50735;52.060;1.248;2023-03-01T02:02:56;102968.25;;;4.56;56.66
63306;BME280;50735;52.060;1.248;2023-03-01T02:05:36;102963.57;;;4.51;56.70
63306;BME280;50735;52.060;1.248;2023-03-01T02:08:05;102958.55;;;4.25;57.84
63306;BME280;50735;52.060;1.248;2023-03-01T02:10:34;102956.23;;;4.25;57.88
63306;BME280;50735;52.060;1.248;2023-03-01T02:13:02;102954.92;;;4.16;58.44
63306;BME280;50735;52.060;1.248;2023-03-01T02:15:32;102956.98;;;4.22;57.93
63306;BME280;50735;52.060;1.248;2023-03-01T02:18:00;102955.94;;;4.47;57.81
63306;BME280;50735;52.060;1.248;2023-03-01T02:20:34;102951.92;;;4.34;58.57
63306;BME280;50735;52.060;1.248;2023-03-01T02:23:01;102952.91;;;4.04;58.43
63306;BME280;50735;52.060;1.248;2023-03-01T02:25:34;102951.46;;;4.03;58.78
63306;BME280;50735;52.060;1.248;2023-03-01T02:28:08;102946.10;;;4.10;58.57
63306;BME280;50735;52.060;1.248;2023-03-01T02:30:38;102939.90;;;4.44;58.05
63306;BME280;50735;52.060;1.248;2023-03-01T02:33:05;102933.88;;;4.25;58.38
63306;BME280;50735;52.060;1.248;2023-03-01T02:35:34;102931.19;;;4.29;57.94
63306;BME280;50735;52.060;1.248;2023-03-01T02:38:03;102931.52;;;4.32;58.53
63306;BME280;50735;52.060;1.248;2023-03-01T02:40:34;102933.45;;;3.91;59.12
63306;BME280;50735;52.060;1.248;2023-03-01T02:43:04;102930.75;;;4.15;58.93
63306;BME280;50735;52.060;1.248;2023-03-01T02:45:34;102927.17;;;4.02;59.39
63306;BME280;50735;52.060;1.248;2023-03-01T02:48:00;102920.51;;;4.23;59.00
63306;BME280;50735;52.060;1.248;2023-03-01T02:50:45;102919.68;;;3.95;59.55
63306;BME280;50735;52.060;1.248;2023-03-01T02:53:23;102919.11;;;3.90;59.87
63306;BME280;50735;52.060;1.248;2023-03-01T02:55:53;102916.25;;;3.99;59.43
63306;BME280;50735;52.060;1.248;2023-03-01T02:58:20;102917.17;;;4.03;58.95
63306;BME280;50735;52.060;1.248;2023-03-01T03:00:47;102917.45;;;4.49;59.13
63306;BME280;50735;52.060;1.248;2023-03-01T03:03:15;102912.52;;;4.39;58.96
63306;BME280;50735;52.060;1.248;2023-03-01T03:05:43;102916.58;;;4.29;58.73
63306;BME280;50735;52.060;1.248;2023-03-01T03:08:11;102916.13;;;4.14;59.23
63306;BME280;50735;52.060;1.248;2023-03-01T03:10:40;102916.04;;;4.01;59.33
63306;BME280;50735;52.060;1.248;2023-03-01T03:13:08;102914.17;;;3.71;60.06
63306;BME280;50735;52.060;1.248;2023-03-01T03:15:35;102914.09;;;4.14;60.10
63306;BME280;50735;52.060;1.248;2023-03-01T03:18:04;102912.96;;;4.13;59.54
63306;BME280;50735;52.060;1.248;2023-03-01T03:20:31;102909.46;;;4.12;58.57
63306;BME280;50735;52.060;1.248;2023-03-01T03:22:58;102903.92;;;4.16;58.54
63306;BME280;50735;52.060;1.248;2023-03-01T03:25:27;102905.00;;;4.07;59.31
63306;BME280;50735;52.060;1.248;2023-03-01T03:27:56;102902.87;;;4.13;59.44
63306;BME280;50735;52.060;1.248;2023-03-01T03:30:25;102897.06;;;3.96;59.04
63306;BME280;50735;52.060;1.248;2023-03-01T03:32:52;102894.23;;;4.14;58.85
63306;BME280;50735;52.060;1.248;2023-03-01T03:35:20;102889.48;;;3.99;59.03
63306;BME280;50735;52.060;1.248;2023-03-01T03:37:48;102888.18;;;4.08;58.57
63306;BME280;50735;52.060;1.248;2023-03-01T03:40:15;102878.72;;;3.99;59.15
63306;BME280;50735;52.060;1.248;2023-03-01T03:42:42;102883.33;;;3.95;59.09
63306;BME280;50735;52.060;1.248;2023-03-01T03:45:09;102880.01;;;4.13;59.12
63306;BME280;50735;52.060;1.248;2023-03-01T03:47:36;102875.17;;;4.14;59.04
63306;BME280;50735;52.060;1.248;2023-03-01T03:50:03;102871.47;;;4.08;58.61
63306;BME280;50735;52.060;1.248;2023-03-01T03:52:29;102866.13;;;4.24;58.11
63306;BME280;50735;52.060;1.248;2023-03-01T03:54:56;102864.07;;;4.36;58.14
63306;BME280;50735;52.060;1.248;2023-03-01T03:57:22;102858.36;;;4.40;57.65
63306;BME280;50735;52.060;1.248;2023-03-01T03:59:49;102852.23;;;4.54;58.31
63306;BME280;50735;52.060;1.248;2023-03-01T04:02:16;102851.94;;;4.34;58.39
63306;BME280;50735;52.060;1.248;2023-03-01T04:04:42;102851.47;;;4.30;58.23
63306;BME280;50735;52.060;1.248;2023-03-01T04:07:09;102852.11;;;4.56;57.59
63306;BME280;50735;52.060;1.248;2023-03-01T04:09:36;102846.27;;;4.61;57.41
63306;BME280;50735;52.060;1.248;2023-03-01T04:12:02;102844.16;;;4.45;57.88
63306;BME280;50735;52.060;1.248;2023-03-01T04:14:29;102843.29;;;4.47;57.48
63306;BME280;50735;52.060;1.248;2023-03-01T04:16:56;102844.98;;;4.39;57.59
63306;BME280;50735;52.060;1.248;2023-03-01T04:19:23;102841.93;;;4.65;57.28
63306;BME280;50735;52.060;1.248;2023-03-01T04:21:50;102838.46;;;4.54;56.95
63306;BME280;50735;52.060;1.248;2023-03-01T04:24:16;102836.16;;;4.79;57.12
63306;BME280;50735;52.060;1.248;2023-03-01T04:26:43;102836.55;;;4.59;57.02
63306;BME280;50735;52.060;1.248;2023-03-01T04:29:10;102837.19;;;4.79;56.96
63306;BME280;50735;52.060;1.248;2023-03-01T04:31:36;102836.11;;;4.77;56.89
63306;BME280;50735;52.060;1.248;2023-03-01T04:34:03;102838.21;;;4.57;56.85
63306;BME280;50735;52.060;1.248;2023-03-01T04:36:30;102840.50;;;4.83;57.03
63306;BME280;50735;52.060;1.248;2023-03-01T04:38:57;102839.71;;;4.23;57.04
63306;BME280;50735;52.060;1.248;2023-03-01T04:41:24;102840.38;;;4.49;56.98
63306;BME280;50735;52.060;1.248;2023-03-01T04:43:51;102838.87;;;4.70;56.94
63306;BME280;50735;52.060;1.248;2023-03-01T04:46:19;102835.09;;;4.74;56.93
63306;BME280;50735;52.060;1.248;2023-03-01T04:48:46;102833.03;;;4.76;56.88
63306;BME280;50735;52.060;1.248;2023-03-01T04:51:14;102828.96;;;4.62;56.78
63306;BME280;50735;52.060;1.248;2023-03-01T04:53:41;102821.94;;;4.82;56.80
63306;BME280;50735;52.060;1.248;2023-03-01T04:56:09;102819.94;;;4.65;56.86
63306;BME280;50735;52.060;1.248;2023-03-01T04:58:37;102819.11;;;4.67;56.81
63306;BME280;50735;52.060;1.248;2023-03-01T05:01:08;102817.76;;;5.06;56.79
63306;BME280;50735;52.060;1.248;2023-03-01T05:03:36;102816.46;;;4.71;56.79
63306;BME280;50735;52.060;1.248;2023-03-01T05:06:03;102811.81;;;4.75;56.67
63306;BME280;50735;52.060;1.248;2023-03-01T05:08:30;102812.58;;;4.73;56.76
63306;BME280;50735;52.060;1.248;2023-03-01T05:10:57;102808.34;;;4.75;56.68
63306;BME280;50735;52.060;1.248;2023-03-01T05:13:24;102811.32;;;4.76;56.70
63306;BME280;50735;52.060;1.248;2023-03-01T05:15:55;102810.57;;;4.78;56.61
63306;BME280;50735;52.060;1.248;2023-03-01T05:18:22;102808.81;;;4.78;56.44
63306;BME280;50735;52.060;1.248;2023-03-01T05:20:49;102806.92;;;4.77;56.48
63306;BME280;50735;52.060;1.248;2023-03-01T05:23:16;102805.65;;;4.75;56.57
63306;BME280;50735;52.060;1.248;2023-03-01T05:25:42;102801.97;;;4.93;56.49
63306;BME280;50735;52.060;1.248;2023-03-01T05:28:11;102796.98;;;4.75;56.45
63306;BME280;50735;52.060;1.248;2023-03-01T05:30:39;102793.67;;;4.93;56.46
63306;BME280;50735;52.060;1.248;2023-03-01T05:33:07;102792.15;;;4.95;56.43
63306;BME280;50735;52.060;1.248;2023-03-01T05:35:34;102793.20;;;4.76;56.45
63306;BME280;50735;52.060;1.248;2023-03-01T05:38:01;102792.28;;;4.95;56.19
63306;BME280;50735;52.060;1.248;2023-03-01T05:40:28;102793.64;;;4.51;56.15
63306;BME280;50735;52.060;1.248;2023-03-01T05:42:56;102793.70;;;4.71;56.27
63306;BME280;50735;52.060;1.248;2023-03-01T05:45:24;102794.22;;;4.68;56.14
63306;BME280;50735;52.060;1.248;2023-03-01T05:47:52;102795.22;;;4.89;56.31
63306;BME280;50735;52.060;1.248;2023-03-01T05:50:20;102797.24;;;4.89;56.31
63306;BME280;50735;52.060;1.248;2023-03-01T05:52:48;102798.22;;;4.66;56.21
63306;BME280;50735;52.060;1.248;2023-03-01T05:55:17;102797.69;;;4.65;56.19
63306;BME280;50735;52.060;1.248;2023-03-01T05:57:44;102798.51;;;4.71;56.14
63306;BME280;50735;52.060;1.248;2023-03-01T06:00:13;102796.22;;;4.70;56.32
63306;BME280;50735;52.060;1.248;2023-03-01T06:02:41;102793.81;;;4.40;56.18
63306;BME280;50735;52.060;1.248;2023-03-01T06:05:10;102793.40;;;4.39;56.65
63306;BME280;50735;52.060;1.248;2023-03-01T06:07:37;102793.18;;;4.54;56.70
63306;BME280;50735;52.060;1.248;2023-03-01T06:10:05;102795.73;;;4.38;56.54
63306;BME280;50735;52.060;1.248;2023-03-01T06:12:34;102800.58;;;4.45;56.43
63306;BME280;50735;52.060;1.248;2023-03-01T06:15:03;102800.72;;;4.47;56.25
63306;BME280;50735;52.060;1.248;2023-03-01T06:17:32;102802.55;;;4.69;56.42
63306;BME280;50735;52.060;1.248;2023-03-01T06:19:58;102805.77;;;4.55;56.10
63306;BME280;50735;52.060;1.248;2023-03-01T06:22:25;102804.07;;;4.52;56.17
63306;BME280;50735;52.060;1.248;2023-03-01T06:24:52;102804.16;;;4.55;56.22
63306;BME280;50735;52.060;1.248;2023-03-01T06:27:18;102804.77;;;4.57;56.20
63306;BME280;50735;52.060;1.248;2023-03-01T06:29:45;102805.64;;;4.79;56.13
63306;BME280;50735;52.060;1.248;2023-03-01T06:32:12;102805.25;;;4.83;55.84
63306;BME280;50735;52.060;1.248;2023-03-01T06:34:39;102804.44;;;5.01;55.93
63306;BME280;50735;52.060;1.248;2023-03-01T06:37:06;102804.26;;;4.66;55.65
63306;BME280;50735;52.060;1.248;2023-03-01T06:39:32;102804.44;;;4.82;55.96
63306;BME280;50735;52.060;1.248;2023-03-01T06:41:59;102802.45;;;5.04;55.94
63306;BME280;50735;52.060;1.248;2023-03-01T06:44:26;102804.47;;;4.79;55.68
63306;BME280;50735;52.060;1.248;2023-03-01T06:46:54;102807.92;;;4.69;56.10
63306;BME280;50735;52.060;1.248;2023-03-01T06:49:21;102809.70;;;4.64;56.51
63306;BME280;50735;52.060;1.248;2023-03-01T06:51:48;102810.10;;;4.43;56.25
63306;BME280;50735;52.060;1.248;2023-03-01T06:54:15;102810.83;;;4.42;56.22
63306;BME280;50735;52.060;1.248;2023-03-01T06:56:42;102813.78;;;4.63;56.36
63306;BME280;50735;52.060;1.248;2023-03-01T06:59:09;102815.89;;;4.53;56.18
63306;BME280;50735;52.060;1.248;2023-03-01T07:01:35;102809.78;;;4.54;56.18
63306;BME280;50735;52.060;1.248;2023-03-01T07:04:02;102811.43;;;4.61;56.08
63306;BME280;50735;52.060;1.248;2023-03-01T07:06:29;102814.51;;;4.67;56.05
63306;BME280;50735;52.060;1.248;2023-03-01T07:08:56;102817.12;;;4.64;55.98
63306;BME280;50735;52.060;1.248;2023-03-01T07:11:22;102817.40;;;4.57;56.02
63306;BME280;50735;52.060;1.248;2023-03-01T07:13:49;102820.45;;;4.62;55.78
63306;BME280;50735;52.060;1.248;2023-03-01T07:16:15;102822.73;;;4.64;55.81
63306;BME280;50735;52.060;1.248;2023-03-01T07:18:42;102822.71;;;4.75;55.47
63306;BME280;50735;52.060;1.248;2023-03-01T07:21:12;102823.21;;;4.57;55.70
63306;BME280;50735;52.060;1.248;2023-03-01T07:23:38;102821.38;;;4.64;55.65
63306;BME280;50735;52.060;1.248;2023-03-01T07:26:05;102818.55;;;4.67;55.59
63306;BME280;50735;52.060;1.248;2023-03-01T07:28:32;102819.43;;;5.05;57.84
63306;BME280;50735;52.060;1.248;2023-03-01T07:31:01;102815.71;;;5.29;55.92
63306;BME280;50735;52.060;1.248;2023-03-01T07:33:28;102812.70;;;5.09;56.01
63306;BME280;50735;52.060;1.248;2023-03-01T07:35:56;102812.76;;;4.75;55.32
63306;BME280;50735;52.060;1.248;2023-03-01T07:38:23;102811.73;;;4.76;55.79
63306;BME280;50735;52.060;1.248;2023-03-01T07:40:49;102811.99;;;5.20;55.05
63306;BME280;50735;52.060;1.248;2023-03-01T07:43:16;102810.82;;;5.00;55.15
63306;BME280;50735;52.060;1.248;2023-03-01T07:45:43;102807.98;;;5.02;55.38
63306;BME280;50735;52.060;1.248;2023-03-01T07:48:10;102802.83;;;5.07;55.25
63306;BME280;50735;52.060;1.248;2023-03-01T07:50:37;102796.04;;;5.10;55.37
63306;BME280;50735;52.060;1.248;2023-03-01T07:53:04;102791.35;;;5.07;55.34
63306;BME280;50735;52.060;1.248;2023-03-01T07:55:30;102789.05;;;4.88;55.22
63306;BME280;50735;52.060;1.248;2023-03-01T07:57:58;102782.29;;;5.07;54.90
63306;BME280;50735;52.060;1.248;2023-03-01T08:00:25;102777.59;;;5.02;55.03
63306;BME280;50735;52.060;1.248;2023-03-01T08:02:52;102774.77;;;5.00;55.45
63306;BME280;50735;52.060;1.248;2023-03-01T08:05:19;102779.54;;;4.96;55.63
63306;BME280;50735;52.060;1.248;2023-03-01T08:07:46;102778.18;;;4.87;55.84
63306;BME280;50735;52.060;1.248;2023-03-01T08:10:13;102776.20;;;5.03;55.99
63306;BME280;50735;52.060;1.248;2023-03-01T08:12:39;102775.61;;;4.89;56.08
63306;BME280;50735;52.060;1.248;2023-03-01T08:15:08;102776.15;;;4.85;56.51
63306;BME280;50735;52.060;1.248;2023-03-01T08:17:35;102777.59;;;4.99;56.19
63306;BME280;50735;52.060;1.248;2023-03-01T08:20:02;102776.31;;;5.03;56.07
63306;BME280;50735;52.060;1.248;2023-03-01T08:22:29;102774.43;;;4.71;56.23
63306;BME280;50735;52.060;1.248;2023-03-01T08:24:55;102776.89;;;5.26;56.05
63306;BME280;50735;52.060;1.248;2023-03-01T08:27:22;102771.69;;;5.33;55.91
63306;BME280;50735;52.060;1.248;2023-03-01T08:29:49;102771.89;;;4.80;56.42
63306;BME280;50735;52.060;1.248;2023-03-01T08:32:16;102775.16;;;5.06;55.99
63306;BME280;50735;52.060;1.248;2023-03-01T08:34:46;102774.43;;;5.19;56.26
63306;BME280;50735;52.060;1.248;2023-03-01T08:37:12;102778.32;;;5.29;56.22
63306;BME280;50735;52.060;1.248;2023-03-01T08:39:40;102775.83;;;5.16;56.42
63306;BME280;50735;52.060;1.248;2023-03-01T08:42:06;102773.71;;;5.30;55.71
63306;BME280;50735;52.060;1.248;2023-03-01T08:44:33;102771.73;;;5.48;55.74
63306;BME280;50735;52.060;1.248;2023-03-01T08:47:00;102772.42;;;5.19;56.31
63306;BME280;50735;52.060;1.248;2023-03-01T08:49:26;102773.22;;;5.28;55.88
63306;BME280;50735;52.060;1.248;2023-03-01T08:51:53;102773.41;;;5.30;56.43
63306;BME280;50735;52.060;1.248;2023-03-01T08:54:21;102772.26;;;5.24;56.34
63306;BME280;50735;52.060;1.248;2023-03-01T08:56:49;102775.06;;;5.48;56.69
63306;BME280;50735;52.060;1.248;2023-03-01T08:59:16;102776.75;;;5.52;56.34
63306;BME280;50735;52.060;1.248;2023-03-01T09:01:43;102776.29;;;5.98;56.30
63306;BME280;50735;52.060;1.248;2023-03-01T09:04:10;102775.34;;;5.42;57.10
63306;BME280;50735;52.060;1.248;2023-03-01T09:06:38;102770.43;;;5.63;56.57
63306;BME280;50735;52.060;1.248;2023-03-01T09:09:06;102767.16;;;5.60;56.25
63306;BME280;50735;52.060;1.248;2023-03-01T09:11:32;102768.29;;;5.57;55.78
63306;BME280;50735;52.060;1.248;2023-03-01T09:13:59;102765.26;;;5.87;55.02
63306;BME280;50735;52.060;1.248;2023-03-01T09:16:26;102763.84;;;5.78;54.92
63306;BME280;50735;52.060;1.248;2023-03-01T09:18:54;102761.03;;;5.92;54.64
63306;BME280;50735;52.060;1.248;2023-03-01T09:21:23;102761.80;;;5.56;54.62
63306;BME280;50735;52.060;1.248;2023-03-01T09:23:50;102760.49;;;5.23;55.07
63306;BME280;50735;52.060;1.248;2023-03-01T09:26:18;102763.14;;;5.25;55.73
63306;BME280;50735;52.060;1.248;2023-03-01T09:28:46;102765.92;;;5.70;56.31
63306;BME280;50735;52.060;1.248;2023-03-01T09:31:15;102766.25;;;6.18;53.74
63306;BME280;50735;52.060;1.248;2023-03-01T09:33:46;102768.64;;;5.93;53.87
63306;BME280;50735;52.060;1.248;2023-03-01T09:36:16;102758.82;;;5.85;53.68
63306;BME280;50735;52.060;1.248;2023-03-01T09:38:43;102752.54;;;5.62;54.55
63306;BME280;50735;52.060;1.248;2023-03-01T09:41:19;102753.34;;;7.30;54.49
63306;BME280;50735;52.060;1.248;2023-03-01T09:43:52;102748.23;;;9.13;52.52
63306;BME280;50735;52.060;1.248;2023-03-01T09:46:22;102744.72;;;8.62;47.28
63306;BME280;50735;52.060;1.248;2023-03-01T09:48:52;102743.99;;;8.59;48.13
63306;BME280;50735;52.060;1.248;2023-03-01T09:51:25;102740.61;;;8.59;47.84
63306;BME280;50735;52.060;1.248;2023-03-01T09:53:53;102741.89;;;8.93;47.29
63306;BME280;50735;52.060;1.248;2023-03-01T09:56:24;102742.91;;;8.51;47.47
63306;BME280;50735;52.060;1.248;2023-03-01T09:58:56;102740.28;;;7.67;48.23
63306;BME280;50735;52.060;1.248;2023-03-01T10:01:29;102733.69;;;7.64;48.72
63306;BME280;50735;52.060;1.248;2023-03-01T10:04:09;102732.80;;;6.57;50.96
63306;BME280;50735;52.060;1.248;2023-03-01T10:06:45;102727.22;;;7.18;50.26
63306;BME280;50735;52.060;1.248;2023-03-01T10:09:18;102725.55;;;6.82;50.73
63306;BME280;50735;52.060;1.248;2023-03-01T10:11:48;102726.00;;;6.44;51.08
63306;BME280;50735;52.060;1.248;2023-03-01T10:14:27;102727.83;;;5.69;52.76
63306;BME280;50735;52.060;1.248;2023-03-01T10:16:57;102732.17;;;5.21;53.27
63306;BME280;50735;52.060;1.248;2023-03-01T10:19:30;102734.28;;;6.09;52.79
63306;BME280;50735;52.060;1.248;2023-03-01T10:22:03;102733.41;;;5.42;53.11
63306;BME280;50735;52.060;1.248;2023-03-01T10:24:33;102733.18;;;5.73;54.12
63306;BME280;50735;52.060;1.248;2023-03-01T10:27:04;102728.42;;;5.38;53.79
63306;BME280;50735;52.060;1.248;2023-03-01T10:29:38;102728.27;;;6.00;52.80
63306;BME280;50735;52.060;1.248;2023-03-01T10:32:06;102730.27;;;6.35;51.37
63306;BME280;50735;52.060;1.248;2023-03-01T10:34:34;102732.80;;;6.24;51.73
63306;BME280;50735;52.060;1.248;2023-03-01T10:37:11;102730.96;;;5.81;53.43
63306;BME280;50735;52.060;1.248;2023-03-01T10:39:55;102728.32;;;5.17;53.69
63306;BME280;50735;52.060;1.248;2023-03-01T10:42:27;102724.29;;;4.57;54.41
63306;BME280;50735;52.060;1.248;2023-03-01T10:44:54;102721.98;;;4.27;55.74
63306;BME280;50735;52.060;1.248;2023-03-01T10:47:22;102721.88;;;4.38;55.37
63306;BME280;50735;52.060;1.248;2023-03-01T10:49:54;102716.10;;;4.78;54.70
63306;BME280;50735;52.060;1.248;2023-03-01T10:52:24;102713.86;;;4.78;54.92
63306;BME280;50735;52.060;1.248;2023-03-01T10:54:53;102710.41;;;5.33;54.42
63306;BME280;50735;52.060;1.248;2023-03-01T10:57:28;102707.42;;;5.12;54.33
63306;BME280;50735;52.060;1.248;2023-03-01T11:00:13;102705.94;;;5.64;53.82
63306;BME280;50735;52.060;1.248;2023-03-01T11:02:40;102707.10;;;5.99;52.64
63306;BME280;50735;52.060;1.248;2023-03-01T11:05:17;102703.35;;;6.24;53.24
63306;BME280;50735;52.060;1.248;2023-03-01T11:07:48;102696.63;;;6.27;52.38
63306;BME280;50735;52.060;1.248;2023-03-01T11:10:18;102693.11;;;5.82;52.98
63306;BME280;50735;52.060;1.248;2023-03-01T11:12:45;102683.61;;;5.68;53.13
63306;BME280;50735;52.060;1.248;2023-03-01T11:15:21;102678.86;;;5.05;53.93
63306;BME280;50735;52.060;1.248;2023-03-01T11:17:48;102674.65;;;5.47;53.46
63306;BME280;50735;52.060;1.248;2023-03-01T11:20:23;102671.85;;;5.29;53.30
63306;BME280;50735;52.060;1.248;2023-03-01T11:22:53;102673.24;;;4.85;54.02
63306;BME280;50735;52.060;1.248;2023-03-01T11:25:24;102669.74;;;4.78;54.65
63306;BME280;50735;52.060;1.248;2023-03-01T11:27:52;102672.46;;;4.94;54.33
63306;BME280;50735;52.060;1.248;2023-03-01T11:30:23;102669.16;;;5.06;53.97
63306;BME280;50735;52.060;1.248;2023-03-01T11:33:01;102668.63;;;5.87;53.13
63306;BME280;50735;52.060;1.248;2023-03-01T11:35:30;102667.68;;;5.79;52.14
63306;BME280;50735;52.060;1.248;2023-03-01T11:38:05;102666.93;;;5.77;52.16
63306;BME280;50735;52.060;1.248;2023-03-01T11:40:40;102663.25;;;5.88;52.22
63306;BME280;50735;52.060;1.248;2023-03-01T11:43:17;102659.47;;;5.41;52.50
63306;BME280;50735;52.060;1.248;2023-03-01T11:46:19;102654.81;;;4.84;53.46
63306;BME280;50735;52.060;1.248;2023-03-01T11:49:01;102648.84;;;4.98;54.99
63306;BME280;50735;52.060;1.248;2023-03-01T11:51:41;102652.21;;;4.47;54.51
63306;BME280;50735;52.060;1.248;2023-03-01T11:54:21;102649.23;;;5.06;54.44
63306;BME280;50735;52.060;1.248;2023-03-01T11:56:55;102638.40;;;4.89;55.36
63306;BME280;50735;52.060;1.248;2023-03-01T11:59:37;102639.50;;;5.42;54.41
63306;BME280;50735;52.060;1.248;2023-03-01T12:02:33;102639.59;;;5.99;53.69
63306;BME280;50735;52.060;1.248;2023-03-01T12:05:14;102635.09;;;5.89;53.89
63306;BME280;50735;52.060;1.248;2023-03-01T12:07:50;102633.96;;;5.66;54.12
63306;BME280;50735;52.060;1.248;2023-03-01T12:10:23;102627.62;;;5.70;54.67
63306;BME280;50735;52.060;1.248;2023-03-01T12:13:13;102621.65;;;5.61;55.10
63306;BME280;50735;52.060;1.248;2023-03-01T12:15:52;102617.41;;;5.56;54.36
63306;BME280;50735;52.060;1.248;2023-03-01T12:18:35;102611.02;;;5.73;54.38
63306;BME280;50735;52.060;1.248;2023-03-01T12:21:11;102603.66;;;6.23;54.08
63306;BME280;50735;52.060;1.248;2023-03-01T12:23:54;102596.29;;;5.55;53.14
63306;BME280;50735;52.060;1.248;2023-03-01T12:26:29;102593.22;;;6.01;52.08
63306;BME280;50735;52.060;1.248;2023-03-01T12:29:10;102589.53;;;6.12;52.24
63306;BME280;50735;52.060;1.248;2023-03-01T12:31:55;102584.27;;;6.04;51.93
63306;BME280;50735;52.060;1.248;2023-03-01T12:34:39;102579.17;;;6.71;51.83
63306;BME280;50735;52.060;1.248;2023-03-01T12:37:31;102574.37;;;6.34;51.63
63306;BME280;50735;52.060;1.248;2023-03-01T12:40:16;102571.72;;;6.31;50.89
63306;BME280;50735;52.060;1.248;2023-03-01T12:42:56;102566.20;;;6.30;51.46
63306;BME280;50735;52.060;1.248;2023-03-01T12:45:38;102568.14;;;6.62;50.92
63306;BME280;50735;52.060;1.248;2023-03-01T12:48:23;102565.10;;;6.85;50.78
63306;BME280;50735;52.060;1.248;2023-03-01T12:50:53;102563.95;;;6.82;51.43
63306;BME280;50735;52.060;1.248;2023-03-01T12:53:23;102562.77;;;6.80;51.30
63306;BME280;50735;52.060;1.248;2023-03-01T12:55:53;102561.17;;;6.67;51.40
63306;BME280;50735;52.060;1.248;2023-03-01T12:58:26;102558.58;;;6.39;52.10
63306;BME280;50735;52.060;1.248;2023-03-01T13:01:05;102561.13;;;5.96;51.07
63306;BME280;50735;52.060;1.248;2023-03-01T13:03:51;102556.18;;;5.53;51.45
63306;BME280;50735;52.060;1.248;2023-03-01T13:06:26;102553.78;;;5.50;51.70
63306;BME280;50735;52.060;1.248;2023-03-01T13:09:00;102558.27;;;5.16;52.36
63306;BME280;50735;52.060;1.248;2023-03-01T13:11:30;102554.44;;;4.56;53.75
63306;BME280;50735;52.060;1.248;2023-03-01T13:14:35;102549.19;;;4.24;53.98